Strona główna
METAR-TAF:

METAR-TAF

Lotnisko :

William H. Morse State Airport

Bennington, Vermont, Stany Zjednoczone

Szerokość geograficzna: 42-53-24N, Długość geograficzna: 073-14-47W, wysokość: 252 m

Aktualna obserwacja pogody

Raport powstał 55 minut temu, godzina 20:54 UTC
Wiatr 10 kt od zachodnio-północny zachód w porywach dochodzący do 16 kt
Temperatura 22°C
Wilgotność 43%
Ciśnienie 1011 hPa
Widzialność: 16.1 km
bezchmurnie

METAR: KDDH 302054Z AUTO 29010G16KT 10SM CLR 22/09 A2985 RMK AO2 SLP105 T02220094 58004

czas: 17:49 (21:49 UTC)


TAF: brakujący

Obserwacja i prognoza pogody dla ponad 4000 lotnisk (raport METAR i TAF).

Dostępne stacje oznaczono żółtymi i czerwonymi punktami na mapie.

Najedź kursorem aby zobaczyć nazwę stacji.

Kliknij aby zobaczyć obserwacje i prognozy pogody.

Aby zmienić mapę: kliknij na zielony przycisk z czarnym krzyżykiem, aby powiększyć; na zielony przycisk z myślnikiem, aby pomniejszyć; na zielone strzałki, aby przejść do map sąsiednich.


METAR-TAF: